Terminal Aerodrome Forecast
Issued by NWS

Home | Current Version | Previous Version | Graphics & Text | Print | Product List | Glossary On
Versions: 1 2 3 4 5 6 7 8 9 10 11 12 13 14 15 16 17 18 19 20 21 22 23 24 25 26 27 28 29
000
FTUS43 KDDC 231120
TAFGCK
TAF
KGCK 231120Z 2312/2412 20006KT P6SM SKC
     FM231400 20010KT P6SM SKC
     FM231700 19015G23KT P6SM SKC
     FM232100 18023G31KT P6SM SKC
     FM240500 18018KT P6SM FEW250 WS013/19030KT
     FM240600 18018KT P6SM FEW250 WS020/19050KT
     FM241100 19016G24KT P6SM SCT250 WS020/22045KT=

USA.gov is the U.S. government's official web portal to all federal, state and local government web resources and services.